createdAt,value
2022-11-28T00:01:39.054Z,101627.19
2022-11-28T00:04:07.704Z,101630.72
2022-11-28T00:06:40.201Z,101630.19
2022-11-28T00:09:08.506Z,101636.69
2022-11-28T00:11:36.002Z,101621.56
2022-11-28T00:14:03.357Z,101615.91
2022-11-28T00:16:30.830Z,101617.00
2022-11-28T00:19:01.203Z,101610.50
2022-11-28T00:21:29.421Z,101613.19
2022-11-28T00:23:57.794Z,101605.34
2022-11-28T00:26:30.955Z,101597.78
2022-11-28T00:29:00.371Z,101607.50
2022-11-28T00:31:34.321Z,101594.00
2022-11-28T00:34:02.140Z,101585.09
2022-11-28T00:36:30.401Z,101590.25
2022-11-28T00:38:57.724Z,101587.81
2022-11-28T00:41:28.785Z,101594.84
2022-11-28T00:43:57.026Z,101599.16
2022-11-28T00:46:24.923Z,101582.44
2022-11-28T00:48:53.188Z,101593.28
2022-11-28T00:51:24.962Z,101590.59
2022-11-28T00:53:55.274Z,101595.47
2022-11-28T00:56:25.429Z,101594.09
2022-11-28T00:58:52.940Z,101589.00
2022-11-28T01:01:27.001Z,101588.44
2022-11-28T01:03:56.934Z,101581.44
2022-11-28T01:06:58.403Z,101582.53
2022-11-28T01:09:26.009Z,101578.47
2022-11-28T01:11:54.447Z,101573.63
2022-11-28T01:14:23.999Z,101562.28
2022-11-28T01:16:51.605Z,101560.91
2022-11-28T01:19:19.943Z,101554.69
2022-11-28T01:21:47.754Z,101553.06
2022-11-28T01:24:15.333Z,101550.63
2022-11-28T01:26:46.960Z,101547.09
2022-11-28T01:29:14.925Z,101551.16
2022-11-28T01:31:43.927Z,101545.78
2022-11-28T01:34:11.351Z,101547.38
2022-11-28T01:36:38.772Z,101544.16
2022-11-28T01:39:06.523Z,101547.91
2022-11-28T01:41:34.199Z,101543.59
2022-11-28T01:44:04.710Z,101535.25
2022-11-28T01:46:32.789Z,101532.53
2022-11-28T01:49:29.808Z,101531.19
2022-11-28T01:52:08.004Z,101531.72
2022-11-28T01:54:41.990Z,101530.91
2022-11-28T01:57:15.316Z,101526.31
2022-11-28T01:59:49.088Z,101526.88
2022-11-28T02:02:41.789Z,101527.38
2022-11-28T02:05:09.419Z,101524.44
2022-11-28T02:07:38.005Z,101522.53
2022-11-28T02:10:09.003Z,101519.56
2022-11-28T02:12:52.483Z,101523.59
2022-11-28T02:15:37.622Z,101526.59
2022-11-28T02:18:23.362Z,101513.09
2022-11-28T02:21:06.167Z,101511.47
2022-11-28T02:24:19.896Z,101508.19
2022-11-28T02:26:50.116Z,101506.59
2022-11-28T02:29:46.937Z,101496.06
2022-11-28T02:32:40.644Z,101494.75
2022-11-28T02:35:20.260Z,101493.38
2022-11-28T02:38:03.177Z,101484.19
2022-11-28T02:40:53.981Z,101477.97
2022-11-28T02:43:21.270Z,101470.97
2022-11-28T02:46:14.566Z,101467.19
2022-11-28T02:49:00.002Z,101470.16
2022-11-28T02:51:39.898Z,101472.03
2022-11-28T02:54:12.229Z,101461.50
2022-11-28T02:56:46.853Z,101457.19
2022-11-28T02:59:40.638Z,101465.03
2022-11-28T03:02:23.581Z,101455.84
2022-11-28T03:05:20.734Z,101446.66
2022-11-28T03:07:51.087Z,101450.97
2022-11-28T03:10:37.857Z,101448.00
2022-11-28T03:13:14.047Z,101442.06
2022-11-28T03:15:59.705Z,101449.63
2022-11-28T03:18:34.497Z,101444.47
2022-11-28T03:21:22.620Z,101438.84
2022-11-28T03:24:12.018Z,101437.47
2022-11-28T03:26:56.833Z,101443.69
2022-11-28T03:29:52.497Z,101448.28
2022-11-28T03:32:29.682Z,101446.38
2022-11-28T03:35:02.781Z,101452.34
2022-11-28T03:37:35.675Z,101455.56
2022-11-28T03:40:08.680Z,101452.34
2022-11-28T03:42:42.607Z,101445.28
2022-11-28T03:45:15.367Z,101454.75
2022-11-28T03:47:46.334Z,101442.88
2022-11-28T03:50:20.101Z,101444.22
2022-11-28T03:52:55.997Z,101444.22
2022-11-28T03:55:30.932Z,101447.75
2022-11-28T03:58:06.140Z,101435.84
2022-11-28T04:00:38.092Z,101428.56
2022-11-28T04:03:20.014Z,101445.03
2022-11-28T04:05:53.972Z,101438.03
2022-11-28T04:08:32.352Z,101430.72
2022-11-28T04:11:17.718Z,101428.28
2022-11-28T04:13:51.858Z,101433.16
2022-11-28T04:16:24.918Z,101430.72
2022-11-28T04:19:01.610Z,101425.56
2022-11-28T04:21:32.421Z,101427.47
2022-11-28T04:24:05.095Z,101430.16
2022-11-28T04:26:36.461Z,101423.97
2022-11-28T04:29:08.058Z,101419.13
2022-11-28T04:31:37.936Z,101426.66
2022-11-28T04:34:09.950Z,101424.78
2022-11-28T04:36:39.210Z,101425.84
2022-11-28T04:39:12.925Z,101426.94
2022-11-28T04:42:14.570Z,101420.97
2022-11-28T04:44:52.215Z,101412.88
2022-11-28T04:47:19.711Z,101411.81
2022-11-28T04:49:47.163Z,101409.09
2022-11-28T04:53:09.447Z,101414.25
2022-11-28T04:55:48.963Z,101415.06
2022-11-28T04:58:22.446Z,101410.47
2022-11-28T05:00:53.690Z,101416.41
2022-11-28T05:03:26.542Z,101406.44
2022-11-28T05:05:54.151Z,101405.34
2022-11-28T05:08:21.596Z,101409.13
2022-11-28T05:10:49.405Z,101408.03
2022-11-28T05:13:17.238Z,101401.56
2022-11-28T05:15:44.665Z,101401.28
2022-11-28T05:18:12.064Z,101396.16
2022-11-28T05:20:40.341Z,101383.16
2022-11-28T05:23:10.290Z,101392.13
2022-11-28T05:25:39.976Z,101386.72
2022-11-28T05:28:08.729Z,101389.66
2022-11-28T05:30:36.067Z,101376.72
2022-11-28T05:33:03.748Z,101378.34
2022-11-28T05:35:31.077Z,101382.13
2022-11-28T05:37:58.408Z,101379.69
2022-11-28T05:40:25.761Z,101382.66
2022-11-28T05:42:53.240Z,101378.34
2022-11-28T05:45:20.608Z,101383.19
2022-11-28T05:47:50.957Z,101376.97
2022-11-28T05:50:18.277Z,101382.13
2022-11-28T05:52:45.637Z,101377.78
2022-11-28T05:55:13.072Z,101377.53
2022-11-28T05:57:43.105Z,101384.00
2022-11-28T06:00:11.092Z,101393.97
2022-11-28T06:02:41.971Z,101383.72
2022-11-28T06:05:34.621Z,101389.66
2022-11-28T06:07:56.863Z,101391.53
2022-11-28T06:10:24.467Z,101379.09
2022-11-28T06:12:52.241Z,101390.44
2022-11-28T06:15:19.669Z,101391.00
2022-11-28T06:17:47.027Z,101387.19
2022-11-28T06:20:14.514Z,101385.88
2022-11-28T06:22:41.849Z,101379.38
2022-11-28T06:25:09.178Z,101370.72
2022-11-28T06:27:36.549Z,101377.19
2022-11-28T06:30:05.439Z,101375.03
2022-11-28T06:32:32.793Z,101382.31
2022-11-28T06:35:00.234Z,101368.00
2022-11-28T06:37:28.239Z,101366.13
2022-11-28T06:39:55.652Z,101367.22
2022-11-28T06:42:23.066Z,101379.91
2022-11-28T06:44:50.390Z,101362.59
2022-11-28T06:47:17.775Z,101365.31
2022-11-28T06:49:45.407Z,101370.19
2022-11-28T06:52:12.950Z,101358.88
2022-11-28T06:54:40.258Z,101360.97
2022-11-28T06:57:07.640Z,101367.75
2022-11-28T06:59:35.002Z,101350.19
2022-11-28T07:02:07.480Z,101351.00
2022-11-28T07:04:35.620Z,101353.44
2022-11-28T07:07:03.423Z,101346.16
2022-11-28T07:09:30.833Z,101348.06
2022-11-28T07:11:58.171Z,101339.94
2022-11-28T07:14:25.655Z,101338.56
2022-11-28T07:16:53.584Z,101340.47
2022-11-28T07:19:23.072Z,101341.81
2022-11-28T07:21:50.953Z,101332.66
2022-11-28T07:24:18.896Z,101342.09
2022-11-28T07:26:46.966Z,101343.69
2022-11-28T07:29:16.798Z,101343.69
2022-11-28T07:31:45.301Z,101342.84
2022-11-28T07:34:12.806Z,101334.22
2022-11-28T07:36:40.185Z,101337.19
2022-11-28T07:39:08.865Z,101337.38
2022-11-28T07:41:36.323Z,101341.47
2022-11-28T07:44:05.069Z,101333.34
2022-11-28T07:46:33.361Z,101339.00
2022-11-28T07:49:01.833Z,101352.53
2022-11-28T07:51:32.830Z,101351.63
2022-11-28T07:54:01.179Z,101351.38
2022-11-28T07:57:04.096Z,101345.69
2022-11-28T07:59:18.970Z,101327.81
2022-11-28T08:01:46.477Z,101329.97
2022-11-28T08:04:13.944Z,101329.41
2022-11-28T08:06:43.384Z,101327.53
2022-11-28T08:09:17.149Z,101325.91
2022-11-28T08:11:44.590Z,101325.59
2022-11-28T08:14:14.876Z,101303.22
2022-11-28T08:16:45.140Z,101306.44
2022-11-28T08:19:13.204Z,101314.28
2022-11-28T08:21:40.915Z,101308.59
2022-11-28T08:24:09.075Z,101318.59
2022-11-28T08:26:37.435Z,101314.53
2022-11-28T08:29:05.912Z,101313.97
2022-11-28T08:31:38.308Z,101312.59
2022-11-28T08:34:09.376Z,101315.81
2022-11-28T08:36:37.426Z,101325.81
2022-11-28T08:41:57.314Z,101315.25
2022-11-28T08:44:26.274Z,101318.69
2022-11-28T08:46:54.061Z,101315.97
2022-11-28T08:49:21.399Z,101319.19
2022-11-28T08:51:48.959Z,101324.88
2022-11-28T08:54:16.428Z,101314.56
2022-11-28T08:56:45.449Z,101316.72
2022-11-28T08:59:14.899Z,101322.09
2022-11-28T09:01:42.372Z,101308.78
2022-11-28T09:04:09.863Z,101303.34
2022-11-28T09:06:39.644Z,101317.69
2022-11-28T09:09:07.176Z,101306.72
2022-11-28T09:11:35.198Z,101302.41
2022-11-28T09:14:04.682Z,101308.00
2022-11-28T09:16:33.004Z,101313.47
2022-11-28T09:19:00.432Z,101314.31
2022-11-28T09:21:28.901Z,101311.59
2022-11-28T09:23:58.985Z,101297.72
2022-11-28T09:26:26.753Z,101298.94
2022-11-28T09:28:55.665Z,101294.00
2022-11-28T09:31:23.434Z,101291.38
2022-11-28T09:33:54.294Z,101280.28
2022-11-28T09:36:24.995Z,101284.56
2022-11-28T09:38:52.443Z,101291.94
2022-11-28T09:41:37.942Z,101298.25
2022-11-28T09:44:27.009Z,101295.81
2022-11-28T09:46:58.158Z,101294.69
2022-11-28T09:49:40.600Z,101288.13
2022-11-28T09:52:08.239Z,101294.09
2022-11-28T09:54:48.512Z,101284.03
2022-11-28T09:57:23.477Z,101307.19
2022-11-28T09:59:51.651Z,101312.31
2022-11-28T10:02:32.489Z,101317.84
2022-11-28T10:05:10.957Z,101303.69
2022-11-28T10:07:56.825Z,101292.59
2022-11-28T10:10:36.401Z,101286.81
2022-11-28T10:13:12.331Z,101267.84
2022-11-28T10:16:19.587Z,101279.38
2022-11-28T10:18:52.740Z,101276.06
2022-11-28T10:21:59.286Z,101277.13
2022-11-28T10:24:54.006Z,101273.53
2022-11-28T10:27:31.306Z,101266.38
2022-11-28T10:30:04.568Z,101272.78
2022-11-28T10:32:37.965Z,101282.00
2022-11-28T10:35:33.946Z,101276.53
2022-11-28T10:38:01.470Z,101275.34
2022-11-28T10:40:39.511Z,101260.06
2022-11-28T10:43:25.161Z,101267.31
2022-11-28T10:45:59.919Z,101267.38
2022-11-28T10:49:01.120Z,101268.84
2022-11-28T10:51:48.165Z,101261.44
2022-11-28T10:54:18.227Z,101261.66
2022-11-28T10:57:01.324Z,101257.03
2022-11-28T10:59:33.629Z,101250.75
2022-11-28T11:02:18.304Z,101247.28
2022-11-28T11:04:48.710Z,101255.13
2022-11-28T11:07:30.969Z,101246.41
2022-11-28T11:10:51.050Z,101249.47
2022-11-28T11:13:28.626Z,101247.00
2022-11-28T11:16:02.728Z,101237.25
2022-11-28T11:18:34.535Z,101238.06
2022-11-28T11:21:17.003Z,101230.22
2022-11-28T11:23:45.801Z,101227.44
2022-11-28T11:26:29.868Z,101222.50
2022-11-28T11:28:57.529Z,101216.28
2022-11-28T11:31:33.609Z,101220.09
2022-11-28T11:34:16.506Z,101220.19
2022-11-28T11:36:44.372Z,101211.00
2022-11-28T11:39:11.960Z,101217.66
2022-11-28T11:41:44.943Z,101205.13
2022-11-28T11:44:16.514Z,101203.53
2022-11-28T11:46:57.362Z,101197.88
2022-11-28T11:49:41.701Z,101194.38
2022-11-28T11:52:16.608Z,101195.97
2022-11-28T11:55:12.297Z,101182.00
2022-11-28T11:57:44.801Z,101173.38
2022-11-28T12:00:20.838Z,101176.47
2022-11-28T12:02:58.216Z,101167.03
2022-11-28T12:06:13.338Z,101163.41
2022-11-28T12:08:49.279Z,101156.91
2022-11-28T12:11:31.529Z,101162.13
2022-11-28T12:14:02.922Z,101155.28
2022-11-28T12:20:26.221Z,101149.38
2022-11-28T12:22:59.413Z,101146.16
2022-11-28T12:25:46.785Z,101139.94
2022-11-28T12:28:20.236Z,101143.72
2022-11-28T12:31:03.075Z,101138.50
2022-11-28T12:33:48.660Z,101140.13
2022-11-28T12:36:35.160Z,101142.84
2022-11-28T12:39:50.812Z,101142.25
2022-11-28T12:42:48.496Z,101133.75
2022-11-28T12:45:21.791Z,101128.06
2022-11-28T12:48:13.992Z,101132.06
2022-11-28T12:51:09.565Z,101116.59
2022-11-28T12:53:36.867Z,101117.22
2022-11-28T12:56:42.314Z,101112.88
2022-11-28T12:59:20.338Z,101114.19
2022-11-28T13:02:19.288Z,101118.50
2022-11-28T13:04:58.229Z,101105.56
2022-11-28T13:07:25.551Z,101109.94
2022-11-28T13:10:02.638Z,101105.56
2022-11-28T13:12:56.130Z,101104.75
2022-11-28T13:15:50.929Z,101103.44
2022-11-28T13:18:28.852Z,101102.47
2022-11-28T13:21:12.485Z,101095.69
2022-11-28T13:24:10.969Z,101096.75
2022-11-28T13:26:52.192Z,101085.91
2022-11-28T13:29:40.152Z,101089.44
2022-11-28T13:32:28.931Z,101084.38
2022-11-28T13:34:56.657Z,101077.94
2022-11-28T13:40:59.705Z,101080.16
2022-11-28T13:43:46.389Z,101078.25
2022-11-28T13:46:14.548Z,101074.72
2022-11-28T13:51:33.786Z,101079.72
2022-11-28T13:54:19.941Z,101079.34
2022-11-28T13:57:08.055Z,101070.72
2022-11-28T13:59:36.750Z,101063.16
2022-11-28T14:02:18.233Z,101058.63
2022-11-28T14:04:48.206Z,101061.34
2022-11-28T14:07:31.824Z,101059.44
2022-11-28T14:10:18.473Z,101069.47
2022-11-28T14:12:51.593Z,101067.63
2022-11-28T14:15:21.952Z,101064.44
2022-11-28T14:18:01.929Z,101057.44
2022-11-28T14:20:39.111Z,101068.59
2022-11-28T14:23:17.376Z,101053.66
2022-11-28T14:25:50.529Z,101054.97
2022-11-28T14:28:26.664Z,101056.38
2022-11-28T14:31:21.541Z,101053.44
2022-11-28T14:33:49.190Z,101053.59
2022-11-28T14:36:43.749Z,101048.97
2022-11-28T14:39:19.626Z,101052.19
2022-11-28T14:42:05.485Z,101062.44
2022-11-28T14:44:54.717Z,101063.31
2022-11-28T14:47:42.966Z,101057.66
2022-11-28T14:50:10.593Z,101057.91
2022-11-28T14:52:48.654Z,101060.38
2022-11-28T14:55:22.092Z,101062.28
2022-11-28T14:58:04.528Z,101064.19
2022-11-28T15:00:44.140Z,101058.78
2022-11-28T15:03:39.055Z,101064.50
2022-11-28T15:06:38.258Z,101066.09
2022-11-28T15:09:25.879Z,101061.50
2022-11-28T15:12:02.480Z,101063.69
2022-11-28T15:14:33.282Z,101066.69
2022-11-28T15:17:05.567Z,101077.41
2022-11-28T15:19:48.266Z,101076.88
2022-11-28T15:22:39.810Z,101075.69
2022-11-28T15:25:27.167Z,101080.84
2022-11-28T15:27:55.492Z,101074.81
2022-11-28T15:30:26.923Z,101085.38
2022-11-28T15:33:05.680Z,101078.94
2022-11-28T15:35:33.909Z,101072.47
2022-11-28T15:38:01.863Z,101086.22
2022-11-28T15:40:32.491Z,101100.44
2022-11-28T15:43:06.645Z,101095.72
2022-11-28T15:45:37.007Z,101085.78
2022-11-28T15:48:06.598Z,101097.56
2022-11-28T15:50:34.513Z,101092.03
2022-11-28T15:53:15.461Z,101092.16
2022-11-28T15:55:44.286Z,101098.59
2022-11-28T15:58:17.799Z,101103.06
2022-11-28T16:00:53.370Z,101094.44
2022-11-28T16:03:24.957Z,101095.00
2022-11-28T16:05:54.745Z,101081.38
2022-11-28T16:08:50.731Z,101089.72
2022-11-28T16:11:21.086Z,101088.47
2022-11-28T16:13:49.228Z,101090.59
2022-11-28T16:16:21.270Z,101087.00
2022-11-28T16:18:57.314Z,101097.63
2022-11-28T16:22:04.084Z,101091.91
2022-11-28T16:24:42.672Z,101091.13
2022-11-28T16:27:26.928Z,101085.91
2022-11-28T16:29:54.354Z,101088.19
2022-11-28T16:32:36.516Z,101084.22
2022-11-28T16:35:04.877Z,101088.91
2022-11-28T16:37:32.957Z,101080.91
2022-11-28T16:40:14.645Z,101092.28
2022-11-28T16:42:42.272Z,101085.22
2022-11-28T16:45:25.260Z,101084.44
2022-11-28T16:48:14.881Z,101084.44
2022-11-28T16:51:02.015Z,101092.91
2022-11-28T16:53:41.676Z,101091.63
2022-11-28T16:56:30.398Z,101085.47
2022-11-28T16:59:24.521Z,101085.03
2022-11-28T17:01:53.539Z,101092.91
2022-11-28T17:04:25.138Z,101092.59
2022-11-28T17:06:54.791Z,101087.13
2022-11-28T17:09:22.193Z,101085.22
2022-11-28T17:12:05.074Z,101091.44
2022-11-28T17:14:32.742Z,101096.47
2022-11-28T17:17:02.968Z,101089.09
2022-11-28T17:19:30.465Z,101090.72
2022-11-28T17:21:59.582Z,101083.75
2022-11-28T17:24:33.174Z,101079.75
2022-11-28T17:27:01.346Z,101092.00
2022-11-28T17:29:29.271Z,101083.94
2022-11-28T17:31:59.066Z,101076.44
2022-11-28T17:34:31.438Z,101064.41
2022-11-28T17:37:00.391Z,101090.25
2022-11-28T17:39:29.107Z,101081.63
2022-11-28T17:41:57.750Z,101091.31
2022-11-28T17:44:28.032Z,101088.31
2022-11-28T17:46:57.219Z,101090.19
2022-11-28T17:49:25.178Z,101086.94
2022-11-28T17:51:54.781Z,101082.88
2022-11-28T17:54:24.417Z,101091.59
2022-11-28T17:57:12.318Z,101085.16
2022-11-28T17:59:39.659Z,101090.03
2022-11-28T18:02:07.132Z,101081.09
2022-11-28T18:04:37.444Z,101082.69
2022-11-28T18:07:04.916Z,101080.06
2022-11-28T18:09:32.648Z,101080.78
2022-11-28T18:12:02.902Z,101079.72
2022-11-28T18:14:36.636Z,101085.38
2022-11-28T18:17:08.158Z,101081.09
2022-11-28T18:19:35.599Z,101086.06
2022-11-28T18:22:02.996Z,101087.16
2022-11-28T18:24:30.396Z,101086.91
2022-11-28T18:26:57.730Z,101080.47
2022-11-28T18:29:25.400Z,101085.50
2022-11-28T18:31:53.865Z,101083.09
2022-11-28T18:34:21.247Z,101076.91
2022-11-28T18:36:52.121Z,101074.47
2022-11-28T18:39:19.936Z,101074.47
2022-11-28T18:41:50.260Z,101072.28
2022-11-28T18:44:19.018Z,101067.47
2022-11-28T18:46:46.339Z,101066.88
2022-11-28T18:49:15.217Z,101059.00
2022-11-28T18:51:42.805Z,101060.09
2022-11-28T18:54:10.230Z,101055.44
2022-11-28T18:56:38.143Z,101056.53
2022-11-28T18:59:06.039Z,101065.72
2022-11-28T19:01:34.879Z,101058.69
2022-11-28T19:04:11.154Z,101054.44
2022-11-28T19:06:40.474Z,101056.34
2022-11-28T19:09:11.520Z,101053.66
2022-11-28T19:11:40.929Z,101059.63
2022-11-28T19:14:08.849Z,101042.34
2022-11-28T19:16:37.807Z,101062.63
2022-11-28T19:19:06.126Z,101048.28
2022-11-28T19:21:35.641Z,101052.84
2022-11-28T19:24:03.237Z,101058.25
2022-11-28T19:26:31.512Z,101060.72
2022-11-28T19:29:02.101Z,101061.06
2022-11-28T19:31:31.899Z,101064.31
2022-11-28T19:34:05.051Z,101069.75
2022-11-28T19:36:39.300Z,101060.38
2022-11-28T19:39:17.069Z,101068.75
2022-11-28T19:41:45.296Z,101070.78
2022-11-28T19:44:14.486Z,101068.69
2022-11-28T19:46:42.201Z,101061.16
2022-11-28T19:49:16.899Z,101066.56
2022-11-28T19:51:44.700Z,101058.16
2022-11-28T19:54:12.304Z,101065.47
2022-11-28T19:56:39.927Z,101059.88
2022-11-28T19:59:09.396Z,101065.03
2022-11-28T20:01:38.818Z,101062.34
2022-11-28T20:04:06.313Z,101052.34
2022-11-28T20:06:34.553Z,101049.09
2022-11-28T20:09:08.993Z,101054.75
2022-11-28T20:11:42.962Z,101059.06
2022-11-28T20:14:16.854Z,101069.03
2022-11-28T20:16:44.973Z,101063.63
2022-11-28T20:19:14.913Z,101064.44
2022-11-28T20:21:45.020Z,101064.94
2022-11-28T20:24:12.734Z,101062.78
2022-11-28T20:26:42.717Z,101066.78
2022-11-28T20:29:15.863Z,101064.63
2022-11-28T20:31:47.645Z,101063.81
2022-11-28T20:34:18.918Z,101065.97
2022-11-28T20:36:53.744Z,101062.72
2022-11-28T20:39:21.339Z,101064.03
2022-11-28T20:41:48.704Z,101058.13
2022-11-28T20:44:17.643Z,101061.63
2022-11-28T20:46:46.387Z,101066.69
2022-11-28T20:49:15.276Z,101061.06
2022-11-28T20:51:42.912Z,101061.06
2022-11-28T20:54:12.317Z,101055.91
2022-11-28T20:57:05.494Z,101060.53
2022-11-28T20:59:27.512Z,101061.69
2022-11-28T21:01:54.953Z,101068.19
2022-11-28T21:04:22.348Z,101055.50
2022-11-28T21:06:49.781Z,101055.22
2022-11-28T21:09:20.093Z,101052.50
2022-11-28T21:11:58.011Z,101061.16
2022-11-28T21:14:29.866Z,101057.13
2022-11-28T21:16:58.210Z,101058.25
2022-11-28T21:19:25.669Z,101062.34
2022-11-28T21:21:53.285Z,101059.91
2022-11-28T21:24:23.321Z,101060.69
2022-11-28T21:26:54.068Z,101055.81
2022-11-28T21:29:23.437Z,101052.91
2022-11-28T21:31:51.041Z,101055.63
2022-11-28T21:34:19.552Z,101053.19
2022-11-28T21:36:47.263Z,101052.91
2022-11-28T21:39:20.122Z,101046.69
2022-11-28T21:41:48.099Z,101051.56
2022-11-28T21:44:15.500Z,101044.56
2022-11-28T21:46:43.225Z,101052.63
2022-11-28T21:49:10.633Z,101044.34
2022-11-28T21:51:40.703Z,101046.66
2022-11-28T21:54:12.021Z,101044.03
2022-11-28T21:56:39.524Z,101037.03
2022-11-28T21:59:06.988Z,101045.75
2022-11-28T22:01:34.804Z,101047.69
2022-11-28T22:04:03.251Z,101054.66
2022-11-28T22:06:32.162Z,101044.41
2022-11-28T22:09:08.380Z,101045.44
2022-11-28T22:11:38.153Z,101047.56
2022-11-28T22:14:05.794Z,101043.34
2022-11-28T22:16:33.477Z,101046.78
2022-11-28T22:19:01.209Z,101056.00
2022-11-28T22:21:51.884Z,101052.50
2022-11-28T22:24:16.257Z,101044.13
2022-11-28T22:26:44.519Z,101044.38
2022-11-28T22:29:13.368Z,101042.47
2022-11-28T22:31:43.785Z,101049.78
2022-11-28T22:34:12.265Z,101056.47
2022-11-28T22:36:39.750Z,101044.03
2022-11-28T22:39:13.066Z,101053.25
2022-11-28T22:41:40.326Z,101055.91
2022-11-28T22:44:10.636Z,101041.59
2022-11-28T22:46:38.197Z,101038.03
2022-11-28T22:49:07.038Z,101039.16
2022-11-28T22:51:35.834Z,101039.44
2022-11-28T22:54:04.102Z,101039.44
2022-11-28T22:56:33.677Z,101041.59
2022-11-28T22:59:01.637Z,101034.03
2022-11-28T23:01:30.430Z,101035.13
2022-11-28T23:03:58.888Z,101031.41
2022-11-28T23:06:32.384Z,101027.38
2022-11-28T23:09:02.282Z,101033.06
2022-11-28T23:11:32.946Z,101029.00
2022-11-28T23:14:02.218Z,101029.06
2022-11-28T23:16:40.593Z,101024.72
2022-11-28T23:19:12.874Z,101023.66
2022-11-28T23:21:41.628Z,101024.22
2022-11-28T23:24:14.158Z,101022.31
2022-11-28T23:26:42.086Z,101026.09
2022-11-28T23:29:11.330Z,101020.16
2022-11-28T23:31:40.940Z,101020.41
2022-11-28T23:34:10.131Z,101016.94
2022-11-28T23:36:42.914Z,101021.56
2022-11-28T23:39:15.016Z,101012.34
2022-11-28T23:41:43.480Z,101016.16
2022-11-28T23:44:15.173Z,101012.06
2022-11-28T23:46:43.531Z,101005.84
2022-11-28T23:49:11.930Z,100992.91
2022-11-28T23:51:42.646Z,101014.19
2022-11-28T23:54:11.348Z,101005.63
2022-11-28T23:56:40.383Z,101015.00
2022-11-28T23:59:10.067Z,101009.31
